KECS/ECS METAR and TAF weather

Enter ICAO airport designator
Station Type Date Time Source
KECS METAR 2020/08/12 17:15 UTC NOAA

KECS 121715Z AUTO 17005KT 10SM CLR 29/00 A2994 RMK AO2


Station Type Date Time Source
KECS Decoded METAR 2020/08/12 17:15 UTC NOAA

Station name not available
Aug 12, 2020 - 01:15 PM EDT / 2020.08.12 1715 UTC
Wind: from the S (170 degrees) at 6 MPH (5 KT):0
Visibility: 10 mile(s):0
Sky conditions: clear
Temperature: 84 F (29 C)
Dew Point: 32 F (0 C)
Relative Humidity: 15%
Pressure (altimeter): 29.94 in. Hg (1013 hPa)
ob: KECS 121715Z AUTO 17005KT 10SM CLR 29/00 A2994 RMK AO2
cycle: 17

Station Type Date Time Source
KECS TAF UTC NOAA

Error!

Example: see airport list